createdAt,value
2022-08-17T00:00:34.197Z,61.70
2022-08-17T00:03:15.241Z,61.78
2022-08-17T00:05:49.922Z,61.89
2022-08-17T00:08:20.339Z,62.01
2022-08-17T00:10:48.904Z,62.11
2022-08-17T00:13:24.139Z,62.21
2022-08-17T00:15:50.980Z,62.08
2022-08-17T00:19:01.182Z,62.05
2022-08-17T00:21:10.557Z,62.17
2022-08-17T00:23:38.252Z,62.27
2022-08-17T00:26:05.246Z,62.37
2022-08-17T00:28:33.394Z,62.28
2022-08-17T00:31:00.658Z,62.46
2022-08-17T00:33:31.610Z,62.41
2022-08-17T00:35:59.762Z,62.43
2022-08-17T00:38:28.771Z,62.37
2022-08-17T00:41:00.947Z,62.57
2022-08-17T00:43:40.791Z,62.49
2022-08-17T00:46:13.388Z,62.54
2022-08-17T00:48:40.436Z,62.58
2022-08-17T00:51:22.814Z,62.45
2022-08-17T00:54:02.728Z,62.37
2022-08-17T00:56:36.543Z,62.46
2022-08-17T00:59:05.213Z,62.42
2022-08-17T01:01:32.884Z,62.46
2022-08-17T01:04:01.545Z,62.47
2022-08-17T01:06:28.800Z,62.32
2022-08-17T01:08:58.063Z,62.54
2022-08-17T01:11:25.793Z,62.60
2022-08-17T01:13:52.598Z,62.67
2022-08-17T01:16:26.780Z,62.96
2022-08-17T01:18:58.568Z,63.20
2022-08-17T01:21:31.221Z,62.96
2022-08-17T01:23:58.000Z,63.33
2022-08-17T01:26:24.684Z,63.31
2022-08-17T01:28:55.382Z,63.09
2022-08-17T01:31:25.240Z,63.14
2022-08-17T01:33:52.277Z,63.23
2022-08-17T01:36:19.040Z,63.28
2022-08-17T01:38:45.791Z,63.25
2022-08-17T01:41:16.836Z,63.28
2022-08-17T01:43:52.093Z,63.34
2022-08-17T01:46:27.181Z,63.34
2022-08-17T01:48:55.492Z,63.35
2022-08-17T01:51:22.468Z,63.36
2022-08-17T01:53:57.559Z,63.34
2022-08-17T01:56:26.373Z,63.46
2022-08-17T01:58:53.870Z,63.64
2022-08-17T02:01:24.194Z,63.71
2022-08-17T02:03:56.314Z,63.54
2022-08-17T02:06:29.956Z,63.73
2022-08-17T02:09:02.773Z,63.63
2022-08-17T02:11:33.030Z,63.57
2022-08-17T02:14:03.655Z,63.56
2022-08-17T02:16:38.318Z,63.43
2022-08-17T02:19:08.465Z,63.41
2022-08-17T02:21:36.861Z,63.81
2022-08-17T02:24:05.429Z,63.69
2022-08-17T02:26:32.959Z,63.60
2022-08-17T02:28:59.803Z,64.02
2022-08-17T02:31:26.449Z,64.26
2022-08-17T02:34:00.466Z,63.90
2022-08-17T02:36:34.728Z,63.59
2022-08-17T02:39:03.567Z,63.66
2022-08-17T02:41:32.835Z,63.65
2022-08-17T02:44:00.635Z,63.67
2022-08-17T02:46:27.430Z,63.66
2022-08-17T02:48:54.420Z,64.06
2022-08-17T02:51:21.181Z,63.98
2022-08-17T02:53:48.168Z,64.02
2022-08-17T02:56:14.868Z,63.52
2022-08-17T02:58:41.651Z,64.24
2022-08-17T03:01:10.289Z,64.01
2022-08-17T03:03:38.408Z,64.04
2022-08-17T03:06:07.701Z,64.38
2022-08-17T03:08:35.487Z,64.54
2022-08-17T03:11:03.966Z,64.41
2022-08-17T03:13:31.005Z,64.81
2022-08-17T03:15:58.699Z,64.51
2022-08-17T03:18:26.370Z,64.48
2022-08-17T03:20:55.441Z,64.95
2022-08-17T03:23:24.290Z,64.66
2022-08-17T03:25:53.646Z,64.54
2022-08-17T03:28:21.903Z,64.40
2022-08-17T03:30:48.913Z,64.31
2022-08-17T03:33:16.286Z,64.70
2022-08-17T03:35:43.069Z,64.91
2022-08-17T03:38:12.456Z,65.08
2022-08-17T03:40:58.517Z,64.85
2022-08-17T03:43:30.540Z,64.92
2022-08-17T03:46:28.341Z,64.49
2022-08-17T03:49:19.503Z,64.77
2022-08-17T03:52:07.094Z,64.42
2022-08-17T03:54:52.537Z,64.56
2022-08-17T03:57:19.498Z,64.31
2022-08-17T03:59:46.501Z,64.58
2022-08-17T04:02:19.827Z,64.64
2022-08-17T04:04:46.988Z,64.65
2022-08-17T04:07:13.733Z,64.60
2022-08-17T04:09:42.997Z,64.80
2022-08-17T04:12:11.458Z,64.41
2022-08-17T04:14:52.776Z,64.57
2022-08-17T04:17:21.768Z,64.66
2022-08-17T04:19:48.421Z,64.96
2022-08-17T04:22:30.997Z,64.79
2022-08-17T04:25:18.311Z,65.11
2022-08-17T04:27:45.229Z,64.59
2022-08-17T04:30:15.519Z,64.77
2022-08-17T04:33:04.597Z,64.50
2022-08-17T04:35:40.856Z,64.50
2022-08-17T04:38:09.373Z,64.68
2022-08-17T04:40:54.741Z,64.36
2022-08-17T04:43:24.013Z,64.22
2022-08-17T04:45:58.167Z,64.52
2022-08-17T04:48:36.364Z,64.40
2022-08-17T04:51:19.816Z,64.55
2022-08-17T04:53:54.346Z,64.18
2022-08-17T04:56:23.106Z,64.65
2022-08-17T04:58:52.070Z,64.61
2022-08-17T05:01:23.248Z,64.55
2022-08-17T05:03:52.622Z,64.38
2022-08-17T05:06:19.357Z,64.40
2022-08-17T05:08:46.040Z,64.39
2022-08-17T05:11:12.812Z,64.20
2022-08-17T05:13:39.467Z,64.31
2022-08-17T05:16:06.833Z,64.42
2022-08-17T05:18:33.507Z,64.09
2022-08-17T05:21:00.224Z,64.05
2022-08-17T05:23:42.109Z,64.12
2022-08-17T05:26:12.988Z,63.91
2022-08-17T05:28:53.919Z,63.87
2022-08-17T05:31:21.121Z,63.59
2022-08-17T05:33:49.573Z,63.52
2022-08-17T05:36:38.129Z,63.20
2022-08-17T05:39:04.361Z,62.84
2022-08-17T05:41:31.126Z,63.23
2022-08-17T05:43:58.753Z,62.69
2022-08-17T05:46:28.804Z,62.59
2022-08-17T05:49:08.067Z,62.55
2022-08-17T05:52:08.176Z,62.07
2022-08-17T05:54:47.775Z,61.72
2022-08-17T05:57:39.874Z,61.95
2022-08-17T06:00:30.868Z,61.67
2022-08-17T06:03:22.872Z,61.26
2022-08-17T06:05:58.755Z,61.17
2022-08-17T06:08:56.379Z,60.92
2022-08-17T06:11:37.415Z,60.30
2022-08-17T06:14:22.385Z,60.33
2022-08-17T06:16:54.956Z,60.20
2022-08-17T06:19:40.795Z,59.45
2022-08-17T06:22:10.917Z,58.99
2022-08-17T06:24:46.545Z,59.14
2022-08-17T06:27:16.248Z,58.67
2022-08-17T06:29:48.884Z,57.91
2022-08-17T06:32:17.290Z,57.50
2022-08-17T06:34:45.993Z,57.95
2022-08-17T06:37:34.440Z,57.08
2022-08-17T06:40:19.316Z,57.43
2022-08-17T06:43:16.516Z,57.19
2022-08-17T06:45:52.559Z,56.69
2022-08-17T06:48:32.006Z,56.42
2022-08-17T06:51:25.161Z,56.12
2022-08-17T06:54:03.512Z,55.79
2022-08-17T06:56:53.728Z,55.90
2022-08-17T06:59:56.354Z,55.29
2022-08-17T07:02:55.922Z,55.25
2022-08-17T07:05:24.890Z,55.03
2022-08-17T07:08:03.264Z,55.17
2022-08-17T07:10:53.928Z,54.83
2022-08-17T07:13:49.330Z,54.35
2022-08-17T07:16:41.337Z,53.86
2022-08-17T07:19:11.021Z,53.30
2022-08-17T07:22:03.883Z,53.44
2022-08-17T07:24:35.978Z,53.06
2022-08-17T07:27:06.594Z,52.89
2022-08-17T07:29:39.995Z,52.76
2022-08-17T07:32:09.679Z,51.91
2022-08-17T07:35:02.370Z,51.75
2022-08-17T07:37:31.357Z,51.17
2022-08-17T07:39:59.521Z,51.04
2022-08-17T07:43:01.534Z,50.98
2022-08-17T07:45:49.541Z,50.04
2022-08-17T07:48:26.210Z,49.82
2022-08-17T07:50:53.374Z,49.23
2022-08-17T07:53:24.304Z,48.35
2022-08-17T07:55:55.226Z,47.41
2022-08-17T07:58:24.466Z,46.65
2022-08-17T08:01:05.094Z,47.49
2022-08-17T08:03:34.140Z,47.11
2022-08-17T08:06:02.181Z,46.95
2022-08-17T08:08:42.458Z,46.65
2022-08-17T08:11:30.334Z,46.65
2022-08-17T08:14:21.047Z,46.29
2022-08-17T08:17:00.677Z,45.10
2022-08-17T08:19:30.583Z,45.00
2022-08-17T08:22:07.732Z,44.94
2022-08-17T08:24:59.956Z,44.91
2022-08-17T08:27:48.802Z,44.18
2022-08-17T08:30:21.616Z,43.45
2022-08-17T08:33:36.430Z,42.72
2022-08-17T08:37:13.054Z,42.39
2022-08-17T08:39:29.179Z,41.83
2022-08-17T08:42:10.759Z,40.25
2022-08-17T08:45:05.518Z,39.55
2022-08-17T08:47:54.846Z,38.50
2022-08-17T08:50:43.101Z,37.37
2022-08-17T08:53:19.090Z,35.73
2022-08-17T08:55:53.648Z,35.08
2022-08-17T08:58:31.923Z,34.30
2022-08-17T09:01:31.568Z,32.61
2022-08-17T09:04:25.146Z,31.83
2022-08-17T09:07:22.724Z,31.46
2022-08-17T09:10:02.762Z,30.82
2022-08-17T09:12:51.631Z,30.40
2022-08-17T09:15:26.722Z,28.83
2022-08-17T09:18:59.104Z,28.13
2022-08-17T09:21:01.115Z,26.28
2022-08-17T09:23:33.291Z,26.73
2022-08-17T09:26:49.022Z,26.07
2022-08-17T09:29:17.543Z,25.97
2022-08-17T09:31:52.760Z,24.31
2022-08-17T09:34:33.035Z,23.65
2022-08-17T09:37:34.064Z,22.48
2022-08-17T09:40:09.756Z,21.33
2022-08-17T09:42:53.986Z,20.57
2022-08-17T09:45:45.315Z,19.51
2022-08-17T09:48:27.648Z,18.14
2022-08-17T09:51:07.184Z,17.43
2022-08-17T09:53:37.562Z,17.32
2022-08-17T09:56:34.805Z,15.97
2022-08-17T09:59:14.032Z,15.35
2022-08-17T10:01:47.036Z,15.50
2022-08-17T10:04:55.301Z,16.23
2022-08-17T10:07:38.337Z,15.36
2022-08-17T10:10:30.063Z,15.28
2022-08-17T10:13:12.878Z,15.25
2022-08-17T10:15:59.108Z,14.78
2022-08-17T10:18:49.116Z,15.24
2022-08-17T10:21:36.340Z,14.58
2022-08-17T10:24:36.506Z,14.60
2022-08-17T10:27:09.106Z,14.65
2022-08-17T10:29:49.255Z,14.79
2022-08-17T10:32:49.840Z,14.55
2022-08-17T10:35:36.252Z,14.47
2022-08-17T10:38:27.441Z,15.07
2022-08-17T10:41:00.750Z,16.08
2022-08-17T10:43:36.939Z,16.94
2022-08-17T10:46:45.096Z,17.54
2022-08-17T10:49:17.575Z,18.68
2022-08-17T10:51:52.490Z,17.73
2022-08-17T10:54:24.971Z,17.94
2022-08-17T10:56:57.057Z,18.40
2022-08-17T10:59:35.530Z,18.14
2022-08-17T11:02:04.893Z,18.96
2022-08-17T11:05:08.380Z,18.89
2022-08-17T11:07:48.682Z,19.35
2022-08-17T11:10:23.892Z,19.82
2022-08-17T11:13:03.700Z,20.19
2022-08-17T11:15:49.627Z,20.73
2022-08-17T11:18:53.957Z,21.62
2022-08-17T11:21:52.097Z,22.71
2022-08-17T11:24:32.450Z,22.21
2022-08-17T11:27:04.547Z,21.53
2022-08-17T11:30:02.942Z,20.77
2022-08-17T11:32:47.337Z,19.70
2022-08-17T11:35:19.232Z,17.70
2022-08-17T11:38:04.221Z,17.52
2022-08-17T11:40:55.411Z,16.63
2022-08-17T11:43:29.300Z,16.71
2022-08-17T11:46:54.352Z,16.38
2022-08-17T11:49:55.810Z,16.13
2022-08-17T11:52:40.989Z,16.52
2022-08-17T11:55:34.004Z,16.62
2022-08-17T11:58:17.939Z,15.67
2022-08-17T12:00:54.818Z,15.46
2022-08-17T12:03:33.523Z,15.25
2022-08-17T12:06:23.074Z,14.92
2022-08-17T12:09:02.275Z,14.87
2022-08-17T12:11:56.324Z,14.80
2022-08-17T12:15:07.931Z,14.42
2022-08-17T12:17:40.637Z,14.91
2022-08-17T12:20:19.983Z,13.94
2022-08-17T12:23:14.439Z,13.96
2022-08-17T12:26:04.360Z,14.08
2022-08-17T12:28:38.836Z,14.23
2022-08-17T12:31:24.698Z,15.25
2022-08-17T12:33:51.950Z,15.86
2022-08-17T12:36:25.096Z,16.19
2022-08-17T12:39:13.860Z,16.52
2022-08-17T12:41:50.252Z,17.38
2022-08-17T12:44:17.117Z,18.38
2022-08-17T12:46:51.829Z,19.42
2022-08-17T12:49:36.730Z,20.05
2022-08-17T12:52:11.382Z,21.49
2022-08-17T12:54:59.647Z,21.55
2022-08-17T12:57:33.467Z,20.94
2022-08-17T13:00:16.340Z,20.14
2022-08-17T13:02:58.524Z,18.67
2022-08-17T13:05:30.759Z,17.78
2022-08-17T13:08:00.756Z,16.49
2022-08-17T13:10:33.036Z,16.52
2022-08-17T13:13:05.003Z,16.80
2022-08-17T13:15:44.697Z,18.19
2022-08-17T13:18:39.314Z,18.72
2022-08-17T13:21:12.633Z,19.46
2022-08-17T13:23:39.710Z,19.95
2022-08-17T13:26:16.242Z,19.16
2022-08-17T13:28:51.631Z,19.27
2022-08-17T13:31:30.428Z,18.86
2022-08-17T13:34:26.692Z,17.24
2022-08-17T13:37:32.644Z,17.16
2022-08-17T13:40:05.178Z,17.13
2022-08-17T13:42:55.511Z,19.23
2022-08-17T13:45:38.853Z,17.85
2022-08-17T13:48:08.848Z,16.66
2022-08-17T13:50:48.728Z,16.94
2022-08-17T13:53:30.095Z,17.60
2022-08-17T13:56:38.007Z,17.54
2022-08-17T13:59:11.821Z,17.70
2022-08-17T14:01:49.640Z,17.77
2022-08-17T14:04:27.875Z,18.14
2022-08-17T14:07:11.591Z,17.54
2022-08-17T14:09:46.744Z,17.94
2022-08-17T14:12:16.343Z,18.22
2022-08-17T14:14:44.581Z,17.76
2022-08-17T14:17:13.639Z,17.80
2022-08-17T14:19:40.328Z,17.75
2022-08-17T14:22:12.724Z,18.47
2022-08-17T14:24:44.664Z,17.83
2022-08-17T14:27:12.146Z,17.66
2022-08-17T14:29:41.256Z,19.50
2022-08-17T14:32:21.284Z,18.38
2022-08-17T14:34:49.772Z,18.52
2022-08-17T14:37:21.351Z,18.94
2022-08-17T14:39:48.365Z,19.68
2022-08-17T14:42:18.438Z,20.45
2022-08-17T14:44:45.101Z,20.64
2022-08-17T14:47:16.571Z,20.55
2022-08-17T14:49:43.825Z,20.86
2022-08-17T14:52:16.635Z,22.11
2022-08-17T14:54:45.792Z,22.50
2022-08-17T14:57:25.808Z,23.84
2022-08-17T14:59:59.935Z,24.79
2022-08-17T15:02:31.156Z,25.71
2022-08-17T15:05:03.672Z,25.01
2022-08-17T15:07:34.142Z,24.79
2022-08-17T15:10:02.038Z,25.30
2022-08-17T15:12:33.183Z,26.10
2022-08-17T15:15:06.413Z,26.67
2022-08-17T15:17:44.180Z,26.84
2022-08-17T15:20:15.833Z,27.68
2022-08-17T15:22:44.178Z,28.37
2022-08-17T15:25:11.840Z,28.07
2022-08-17T15:27:39.127Z,28.74
2022-08-17T15:30:07.787Z,29.12
2022-08-17T15:32:38.205Z,29.26
2022-08-17T15:35:06.902Z,30.47
2022-08-17T15:37:33.896Z,30.08
2022-08-17T15:40:03.283Z,30.46
2022-08-17T15:42:30.030Z,29.79
2022-08-17T15:44:56.843Z,30.61
2022-08-17T15:47:24.491Z,30.83
2022-08-17T15:49:51.158Z,30.08
2022-08-17T15:52:24.985Z,31.76
2022-08-17T15:54:58.927Z,32.21
2022-08-17T15:57:27.153Z,32.26
2022-08-17T15:59:58.646Z,32.09
2022-08-17T16:03:14.448Z,32.83
2022-08-17T16:05:24.896Z,33.07
2022-08-17T16:07:52.617Z,33.25
2022-08-17T16:10:21.762Z,33.48
2022-08-17T16:13:02.321Z,33.02
2022-08-17T16:15:31.282Z,32.72
2022-08-17T16:17:57.856Z,32.53
2022-08-17T16:20:27.947Z,32.96
2022-08-17T16:22:55.126Z,34.07
2022-08-17T16:25:51.951Z,33.27
2022-08-17T16:28:16.123Z,34.27
2022-08-17T16:30:43.661Z,34.18
2022-08-17T16:33:11.735Z,34.86
2022-08-17T16:35:38.422Z,34.99
2022-08-17T16:38:05.249Z,35.00
2022-08-17T16:40:35.979Z,35.05
2022-08-17T16:43:03.415Z,34.86
2022-08-17T16:45:36.857Z,34.93
2022-08-17T16:48:04.931Z,34.55
2022-08-17T16:50:32.654Z,35.86
2022-08-17T16:53:11.876Z,36.31
2022-08-17T16:55:38.709Z,36.67
2022-08-17T16:58:06.583Z,36.70
2022-08-17T17:00:36.254Z,36.52
2022-08-17T17:03:26.818Z,36.60
2022-08-17T17:06:06.562Z,37.11
2022-08-17T17:08:44.359Z,37.30
2022-08-17T17:11:25.033Z,37.64
2022-08-17T17:14:02.237Z,37.81
2022-08-17T17:16:40.321Z,38.23
2022-08-17T17:19:34.210Z,38.55
2022-08-17T17:22:30.222Z,38.61
2022-08-17T17:25:20.421Z,39.00
2022-08-17T17:28:24.962Z,38.84
2022-08-17T17:31:05.208Z,39.56
2022-08-17T17:33:50.613Z,39.70
2022-08-17T17:36:46.704Z,39.79
2022-08-17T17:39:29.306Z,40.08
2022-08-17T17:42:07.855Z,40.45
2022-08-17T17:44:41.692Z,40.63
2022-08-17T17:47:09.622Z,41.26
2022-08-17T17:49:42.019Z,41.08
2022-08-17T17:52:15.567Z,41.53
2022-08-17T17:55:01.966Z,41.57
2022-08-17T17:57:56.412Z,41.78
2022-08-17T18:00:35.688Z,42.54
2022-08-17T18:03:14.228Z,42.90
2022-08-17T18:06:01.396Z,42.99
2022-08-17T18:08:31.961Z,43.20
2022-08-17T18:11:26.879Z,43.70
2022-08-17T18:14:20.685Z,43.80
2022-08-17T18:16:55.812Z,43.90
2022-08-17T18:19:25.516Z,44.24
2022-08-17T18:22:14.431Z,44.54
2022-08-17T18:24:44.773Z,44.19
2022-08-17T18:27:20.347Z,44.35
2022-08-17T18:29:48.275Z,44.56
2022-08-17T18:32:36.772Z,45.04
2022-08-17T18:35:09.401Z,45.03
2022-08-17T18:37:37.895Z,45.31
2022-08-17T18:40:16.658Z,45.63
2022-08-17T18:43:03.475Z,45.71
2022-08-17T18:45:44.743Z,45.73
2022-08-17T18:48:59.310Z,45.54
2022-08-17T18:51:42.269Z,45.67
2022-08-17T18:54:15.658Z,45.73
2022-08-17T18:56:48.948Z,45.58
2022-08-17T18:59:21.716Z,45.52
2022-08-17T19:02:27.216Z,45.49
2022-08-17T19:05:01.518Z,45.65
2022-08-17T19:07:28.215Z,45.75
2022-08-17T19:10:28.879Z,45.71
2022-08-17T19:13:02.030Z,45.77
2022-08-17T19:15:45.406Z,45.92
2022-08-17T19:18:37.196Z,46.02
2022-08-17T19:21:12.379Z,46.21
2022-08-17T19:23:54.016Z,46.51
2022-08-17T19:26:51.345Z,46.50
2022-08-17T19:29:25.864Z,46.38
2022-08-17T19:31:56.187Z,46.32
2022-08-17T19:34:33.577Z,46.77
2022-08-17T19:37:25.713Z,46.97
2022-08-17T19:40:29.329Z,47.34
2022-08-17T19:43:15.173Z,47.50
2022-08-17T19:46:12.194Z,47.73
2022-08-17T19:49:04.007Z,47.74
2022-08-17T19:51:41.663Z,47.78
2022-08-17T19:54:22.254Z,47.82
2022-08-17T19:57:08.441Z,47.87
2022-08-17T19:59:50.467Z,47.97
2022-08-17T20:02:35.216Z,48.04
2022-08-17T20:05:14.043Z,48.17
2022-08-17T20:08:20.481Z,48.29
2022-08-17T20:11:07.479Z,48.67
2022-08-17T20:13:52.293Z,48.86
2022-08-17T20:16:20.634Z,48.94
2022-08-17T20:18:51.991Z,48.97
2022-08-17T20:21:26.120Z,49.47
2022-08-17T20:24:10.963Z,50.04
2022-08-17T20:26:58.646Z,50.30
2022-08-17T20:29:37.252Z,50.40
2022-08-17T20:32:47.542Z,51.00
2022-08-17T20:35:25.294Z,51.09
2022-08-17T20:38:05.667Z,51.80
2022-08-17T20:40:38.575Z,51.46
2022-08-17T20:43:30.165Z,51.96
2022-08-17T20:46:34.436Z,52.36
2022-08-17T20:49:16.572Z,52.31
2022-08-17T20:52:07.800Z,52.04
2022-08-17T20:54:57.439Z,52.17
2022-08-17T20:57:33.090Z,52.67
2022-08-17T21:00:17.073Z,52.65
2022-08-17T21:02:46.887Z,53.18
2022-08-17T21:05:36.383Z,53.11
2022-08-17T21:08:18.493Z,53.76
2022-08-17T21:10:47.097Z,53.55
2022-08-17T21:13:15.936Z,54.13
2022-08-17T21:15:45.977Z,54.10
2022-08-17T21:18:31.478Z,54.25
2022-08-17T21:21:17.808Z,54.80
2022-08-17T21:24:02.683Z,54.49
2022-08-17T21:26:39.033Z,55.05
2022-08-17T21:29:32.505Z,54.70
2022-08-17T21:32:03.257Z,55.41
2022-08-17T21:34:33.074Z,54.90
2022-08-17T21:37:19.912Z,55.38
2022-08-17T21:40:10.323Z,55.60
2022-08-17T21:42:44.907Z,55.64
2022-08-17T21:45:21.074Z,55.74
2022-08-17T21:47:50.043Z,55.73
2022-08-17T21:50:22.510Z,55.92
2022-08-17T21:52:53.997Z,56.06
2022-08-17T21:55:30.241Z,56.08
2022-08-17T21:58:14.325Z,55.84
2022-08-17T22:00:44.317Z,56.12
2022-08-17T22:03:23.777Z,56.15
2022-08-17T22:05:51.685Z,56.17
2022-08-17T22:08:24.375Z,56.31
2022-08-17T22:11:01.125Z,56.44
2022-08-17T22:13:29.614Z,56.01
2022-08-17T22:16:28.440Z,56.31
2022-08-17T22:18:58.691Z,56.45
2022-08-17T22:21:26.296Z,56.62
2022-08-17T22:24:06.806Z,56.79
2022-08-17T22:27:11.079Z,56.72
2022-08-17T22:29:42.904Z,56.46
2022-08-17T22:32:10.027Z,56.25
2022-08-17T22:34:38.569Z,56.42
2022-08-17T22:37:27.356Z,56.71
2022-08-17T22:39:57.999Z,56.70
2022-08-17T22:42:25.262Z,56.09
2022-08-17T22:44:53.685Z,56.39
2022-08-17T22:47:38.973Z,57.02
2022-08-17T22:50:22.577Z,57.03
2022-08-17T22:53:36.483Z,57.24
2022-08-17T22:56:23.051Z,57.11
2022-08-17T22:59:16.559Z,57.26
2022-08-17T23:02:05.043Z,57.20
2022-08-17T23:04:36.024Z,57.74
2022-08-17T23:07:04.341Z,57.51
2022-08-17T23:09:31.052Z,57.77
2022-08-17T23:11:58.868Z,57.75
2022-08-17T23:14:31.739Z,58.18
2022-08-17T23:16:59.660Z,58.69
2022-08-17T23:19:27.814Z,58.92
2022-08-17T23:21:56.474Z,59.11
2022-08-17T23:24:25.892Z,59.00
2022-08-17T23:26:53.401Z,59.34
2022-08-17T23:29:21.605Z,59.30
2022-08-17T23:31:49.393Z,59.46
2022-08-17T23:34:18.487Z,59.53
2022-08-17T23:36:52.572Z,59.49
2022-08-17T23:39:27.309Z,59.58
2022-08-17T23:41:58.091Z,59.80
2022-08-17T23:44:25.745Z,59.99
2022-08-17T23:46:53.617Z,59.98
2022-08-17T23:49:20.998Z,59.99
2022-08-17T23:51:48.900Z,60.23
2022-08-17T23:54:26.990Z,59.96
2022-08-17T23:56:54.068Z,60.22
2022-08-17T23:59:22.679Z,60.43
